Time;durP1;ratioP1;P1;durP2;ratioP2;P2;SDS_P1;SDS_P2;PMS_P1;PMS_P2;Temp;Humidity;BMP_temperature;BMP_pressure;BME280_temperature;BME280_humidity;BME280_pressure;Samples;Min_cycle;Max_cycle;Signal;HPM_P1;HPM_P2
2022/01/25 00:09:19;;;;;;;21.80;14.77;;;0.00;99.90;-0.40;98295.00;;;;5084212;28;20421;-73
2022/01/25 00:15:40;;;;;;;27.53;18.47;;;0.00;99.90;-0.40;98297.00;;;;5082750;28;20445;-74
2022/01/25 00:25:05;;;;;;;26.40;15.90;;;0.00;99.90;-0.30;98286.00;;;;5107698;28;20439;-73
2022/01/25 00:28:16;;;;;;;23.57;15.93;;;0.00;99.90;-0.30;98282.00;;;;5107489;28;20417;-73
2022/01/25 00:31:10;;;;;;;25.77;16.90;;;0.00;99.90;-0.30;98273.00;;;;5095792;28;20453;-73
2022/01/25 00:33:59;;;;;;;25.80;17.63;;;0.00;99.90;-0.30;98256.00;;;;5106595;28;20788;-73
2022/01/25 00:36:48;;;;;;;25.00;16.27;;;0.00;99.90;-0.40;98265.00;;;;5106698;28;20468;-74
2022/01/25 00:39:37;;;;;;;24.73;16.33;;;0.00;99.90;-0.40;98258.00;;;;5106626;28;20804;-72
2022/01/25 00:42:26;;;;;;;28.97;18.17;;;0.00;99.90;-0.40;98254.00;;;;5109250;27;20455;-73
2022/01/25 00:45:19;;;;;;;30.43;16.13;;;0.00;99.90;-0.50;98260.00;;;;5111328;27;20444;-73
2022/01/25 00:48:17;;;;;;;25.20;14.23;;;0.10;99.90;-0.60;98259.00;;;;5086108;28;20467;-73
2022/01/25 00:51:19;;;;;;;22.87;14.40;;;0.00;99.90;-0.60;98255.00;;;;5085463;28;20445;-73
2022/01/25 00:54:14;;;;;;;26.73;16.00;;;-0.10;99.90;-0.70;98249.00;;;;5106760;28;20424;-72
2022/01/25 00:57:03;;;;;;;26.07;16.33;;;-0.10;99.90;-0.60;98252.00;;;;5106173;28;20979;-72
2022/01/25 00:59:52;;;;;;;22.30;16.70;;;-0.10;99.90;-0.40;98254.00;;;;5106736;28;21008;-73
2022/01/25 01:02:42;;;;;;;22.23;14.53;;;-0.10;99.90;-0.40;98254.00;;;;5102624;28;21037;-73
2022/01/25 01:05:31;;;;;;;23.80;16.10;;;-0.10;99.90;-0.40;98254.00;;;;5105517;28;20425;-72
2022/01/25 01:08:34;;;;;;;18.57;13.57;;;-0.10;99.90;-0.40;98247.00;;;;5097306;28;20740;-73
2022/01/25 01:11:31;;;;;;;21.27;12.83;;;-0.10;99.90;-0.40;98236.00;;;;5105927;28;20483;-73
2022/01/25 01:14:30;;;;;;;18.07;11.53;;;-0.10;99.90;-0.40;98243.00;;;;5106018;28;20435;-73
2022/01/25 01:29:58;;;;;;;16.37;11.40;;;-0.10;99.90;-0.40;98232.00;;;;5086634;28;20537;-73
2022/01/25 01:33:15;;;;;;;15.60;10.23;;;0.00;99.90;-0.50;98224.00;;;;5095488;28;20749;-72
2022/01/25 01:45:46;;;;;;;16.60;9.53;;;0.00;99.90;-0.40;98210.00;;;;5086999;27;20958;-73
2022/01/25 01:48:39;;;;;;;10.57;8.13;;;0.00;99.90;-0.40;98213.00;;;;5086264;28;20952;-73
2022/01/25 01:51:35;;;;;;;16.27;10.47;;;0.00;99.90;-0.40;98205.00;;;;5085627;28;20442;-73
2022/01/25 01:54:24;;;;;;;13.10;8.57;;;0.00;99.90;-0.30;98191.00;;;;5097938;28;20436;-73
2022/01/25 01:57:13;;;;;;;19.27;10.53;;;0.00;99.90;-0.40;98192.00;;;;5104495;28;20487;-73
2022/01/25 02:00:02;;;;;;;16.03;9.60;;;0.00;99.90;-0.50;98194.00;;;;5105744;28;20965;-73
2022/01/25 02:02:51;;;;;;;13.77;8.80;;;0.90;99.90;-0.50;98190.00;;;;5098052;28;20438;-73
2022/01/25 02:05:40;;;;;;;14.87;10.67;;;0.00;99.90;-0.50;98183.00;;;;5102599;27;20416;-73
2022/01/25 02:08:31;;;;;;;15.50;9.70;;;0.00;99.90;-0.40;98178.00;;;;5094211;28;20965;-73
2022/01/25 02:11:20;;;;;;;12.23;9.27;;;-0.10;99.90;-0.40;98164.00;;;;5104892;28;20453;-73
2022/01/25 02:14:12;;;;;;;17.10;10.83;;;-0.10;99.90;-0.30;98163.00;;;;5105921;28;20421;-73
2022/01/25 02:17:10;;;;;;;13.93;10.73;;;-0.10;99.90;-0.40;98171.00;;;;5104770;28;20487;-73
2022/01/25 02:23:21;;;;;;;18.93;10.53;;;-0.10;99.90;-0.40;98163.00;;;;5106154;28;21025;-73
2022/01/25 02:26:11;;;;;;;13.90;9.70;;;-0.10;99.90;-0.40;98163.00;;;;5094215;28;20490;-73
2022/01/25 02:29:00;;;;;;;12.57;10.47;;;-0.10;99.90;-0.40;98149.00;;;;5100289;28;20422;-73
2022/01/25 02:31:49;;;;;;;15.27;10.20;;;-0.10;99.90;-0.40;98148.00;;;;5099429;28;20455;-73
2022/01/25 02:34:39;;;;;;;15.53;11.13;;;-0.10;99.90;-0.30;98148.00;;;;5105582;28;20421;-73
2022/01/25 02:37:29;;;;;;;16.70;11.33;;;-0.10;99.90;-0.40;98147.00;;;;5105544;28;20464;-72
2022/01/25 02:40:18;;;;;;;16.23;9.80;;;-0.10;99.90;-0.50;98148.00;;;;5103478;28;20733;-73
2022/01/25 02:43:07;;;;;;;11.87;9.10;;;-0.10;99.90;-0.40;98139.00;;;;5099966;28;20420;-73
2022/01/25 02:46:23;;;;;;;14.97;10.37;;;0.00;99.90;-0.40;98129.00;;;;5091121;27;20426;-73
2022/01/25 02:49:12;;;;;;;13.97;8.93;;;-0.10;99.90;-0.50;98130.00;;;;5100811;22;20492;-81
2022/01/25 02:52:03;;;;;;;12.10;9.70;;;-0.10;99.90;-0.40;98126.00;;;;5094673;28;20430;-81
2022/01/25 02:54:54;;;;;;;10.90;8.70;;;-0.10;99.90;-0.50;98118.00;;;;5092007;28;20453;-81
2022/01/25 02:57:43;;;;;;;11.10;9.67;;;0.00;99.90;-0.60;98115.00;;;;5083441;28;20480;-81
2022/01/25 03:00:32;;;;;;;13.77;10.13;;;-0.10;99.90;-0.50;98105.00;;;;5101286;28;20945;-81
2022/01/25 03:03:21;;;;;;;12.23;9.20;;;-0.10;99.90;-0.60;98100.00;;;;5088846;28;20962;-81
2022/01/25 03:06:10;;;;;;;13.53;9.23;;;0.30;99.90;-0.60;98111.00;;;;5084577;28;20433;-81
2022/01/25 03:09:00;;;;;;;12.70;9.20;;;0.20;99.90;-0.70;98102.00;;;;5088664;28;20438;-81
2022/01/25 03:11:52;;;;;;;13.73;9.70;;;0.20;99.90;-0.70;98099.00;;;;5088780;28;20442;-81
2022/01/25 03:14:58;;;;;;;13.20;10.10;;;-0.20;99.90;-0.80;98090.00;;;;5089315;28;20430;-81
2022/01/25 03:17:54;;;;;;;12.63;9.53;;;-0.20;99.90;-0.80;98098.00;;;;5088703;28;20461;-81
2022/01/25 03:20:51;;;;;;;13.93;9.70;;;-0.30;99.90;-0.90;98098.00;;;;5084099;28;20441;-81
2022/01/25 03:23:39;;;;;;;13.33;9.23;;;0.30;99.90;-1.00;98092.00;;;;5078994;28;20441;-81
2022/01/25 03:26:28;;;;;;;13.00;8.97;;;-0.30;99.90;-1.10;98084.00;;;;5079983;28;20437;-81
2022/01/25 03:29:19;;;;;;;11.53;8.40;;;-0.40;99.90;-1.00;98081.00;;;;5092322;28;20444;-81
2022/01/25 03:32:08;;;;;;;12.93;9.23;;;-0.40;99.90;-1.00;98084.00;;;;5088098;28;20426;-81
2022/01/25 03:34:57;;;;;;;13.30;8.90;;;-0.50;99.90;-1.10;98078.00;;;;5088171;28;21207;-81
2022/01/25 03:37:46;;;;;;;15.30;10.17;;;-0.60;99.90;-1.10;98065.00;;;;5088196;28;20556;-81
2022/01/25 03:40:35;;;;;;;15.60;10.50;;;-0.50;99.90;-1.20;98072.00;;;;5088246;28;20734;-81
2022/01/25 03:43:24;;;;;;;13.00;8.20;;;-0.70;99.90;-1.30;98067.00;;;;5088366;28;20451;-81
2022/01/25 03:46:20;;;;;;;12.13;7.83;;;-0.70;99.90;-1.40;98068.00;;;;5084494;28;20508;-81
2022/01/25 03:52:16;;;;;;;11.27;7.77;;;-0.60;99.90;-1.40;98062.00;;;;5097176;28;20444;-81
2022/01/25 03:55:06;;;;;;;11.43;8.67;;;-0.90;99.90;-1.60;98055.00;;;;5101843;28;21009;-81
2022/01/25 03:57:55;;;;;;;11.47;8.93;;;-1.00;99.90;-1.60;98058.00;;;;5104784;28;20472;-81
2022/01/25 04:00:45;;;;;;;14.50;9.33;;;-1.00;99.90;-1.70;98054.00;;;;5101716;28;20421;-81
2022/01/25 04:03:40;;;;;;;12.97;8.97;;;-1.10;99.90;-1.70;98052.00;;;;5097381;28;20450;-81
2022/01/25 04:06:32;;;;;;;9.47;7.77;;;-1.10;99.90;-1.80;98043.00;;;;5095574;28;20428;-81
2022/01/25 04:09:22;;;;;;;11.53;8.40;;;-1.20;99.90;-1.80;98045.00;;;;5101443;28;20429;-81
2022/01/25 04:12:13;;;;;;;12.30;8.67;;;-1.20;99.90;-1.80;98051.00;;;;5099487;28;20439;-81
2022/01/25 04:15:02;;;;;;;13.50;9.00;;;-1.30;99.90;-1.90;98034.00;;;;5099528;28;20816;-81
2022/01/25 04:18:00;;;;;;;14.37;8.13;;;-1.30;99.90;-1.90;98041.00;;;;5097866;28;20468;-81
2022/01/25 04:21:07;;;;;;;13.33;8.37;;;-1.30;99.90;-2.10;98044.00;;;;5093318;28;20779;-81
2022/01/25 04:27:02;;;;;;;15.37;8.37;;;-1.40;99.90;-2.00;98024.00;;;;5095004;28;20437;-81
2022/01/25 04:29:52;;;;;;;16.87;8.10;;;-1.40;99.90;-2.00;98033.00;;;;5098063;28;20521;-81
2022/01/25 04:32:47;;;;;;;10.50;8.70;;;-1.30;99.90;-2.10;98023.00;;;;5085856;28;20433;-81
2022/01/25 04:35:57;;;;;;;8.77;7.00;;;-1.50;99.90;-2.20;98027.00;;;;5097288;28;20436;-81
2022/01/25 04:51:30;;;;;;;14.80;8.93;;;-1.60;99.90;-2.20;98029.00;;;;5096939;28;20432;-81
2022/01/25 04:54:36;;;;;;;11.63;7.63;;;-1.60;99.90;-2.30;98018.00;;;;5096417;28;20441;-81
2022/01/25 04:57:37;;;;;;;10.07;7.90;;;-1.60;99.90;-2.40;98025.00;;;;5089453;28;20428;-81
2022/01/25 05:00:27;;;;;;;9.53;7.23;;;-1.70;99.90;-2.50;98023.00;;;;5097185;28;20425;-81
2022/01/25 05:03:22;;;;;;;10.63;8.07;;;-1.80;99.90;-2.60;98010.00;;;;5095655;28;20480;-81
2022/01/25 05:06:15;;;;;;;11.90;7.33;;;-1.80;99.90;-2.50;98001.00;;;;5082908;28;20422;-82
2022/01/25 05:09:10;;;;;;;13.37;6.93;;;-1.90;99.90;-2.60;97996.00;;;;5096953;28;21025;-81
2022/01/25 05:12:02;;;;;;;14.63;8.17;;;-2.00;99.90;-2.60;98003.00;;;;5096250;28;20432;-82
2022/01/25 05:14:59;;;;;;;12.73;7.37;;;-2.00;99.90;-2.70;97999.00;;;;5087066;28;20953;-84
2022/01/25 05:18:00;;;;;;;13.67;7.90;;;-1.90;99.90;-2.70;97985.00;;;;5095559;28;20532;-84
2022/01/25 05:23:55;;;;;;;8.40;6.80;;;-2.10;99.90;-2.90;97992.00;;;;5090255;28;20897;-81
2022/01/25 05:26:44;;;;;;;10.17;6.97;;;-2.20;99.90;-2.90;97997.00;;;;5095574;28;20424;-81
2022/01/25 05:29:35;;;;;;;10.07;7.43;;;-2.20;99.90;-3.00;98000.00;;;;5095697;28;20962;-82
2022/01/25 05:32:23;;;;;;;10.73;7.27;;;-2.30;99.90;-3.10;97999.00;;;;5096171;28;20425;-82
2022/01/25 05:35:12;;;;;;;12.87;8.40;;;-2.30;99.90;-3.00;97991.00;;;;5097003;28;20454;-82
2022/01/25 05:38:01;;;;;;;11.03;7.63;;;-2.40;99.90;-3.00;97986.00;;;;5092398;28;20417;-81
2022/01/25 05:40:58;;;;;;;8.40;5.87;;;-2.40;99.90;-3.00;97991.00;;;;5090061;28;20429;-81
2022/01/25 05:44:15;;;;;;;8.83;6.47;;;-2.40;99.90;-3.10;97987.00;;;;5086972;28;20441;-81
2022/01/25 05:47:07;;;;;;;10.07;7.20;;;-2.50;99.90;-3.20;97982.00;;;;5083630;28;20425;-80
2022/01/25 05:49:57;;;;;;;7.90;6.40;;;-2.50;99.90;-3.20;97977.00;;;;5094764;28;20470;-81
2022/01/25 05:52:46;;;;;;;9.67;7.00;;;-2.50;99.90;-3.20;97985.00;;;;5095733;28;20429;-81
2022/01/25 05:55:35;;;;;;;10.90;8.20;;;-2.50;99.90;-3.10;97973.00;;;;5096004;28;20422;-81
2022/01/25 05:58:25;;;;;;;10.53;7.33;;;-2.50;99.90;-3.20;97969.00;;;;5096493;28;20487;-81
2022/01/25 06:01:13;;;;;;;10.70;7.43;;;-3.90;99.90;-3.20;97966.00;;;;5095496;28;20776;-81
2022/01/25 06:04:06;;;;;;;10.23;7.53;;;-2.70;99.90;-3.20;97970.00;;;;5085061;28;20573;-80
2022/01/25 06:06:55;;;;;;;9.13;7.03;;;-2.60;99.90;-3.30;97970.00;;;;5095743;28;20430;-81
2022/01/25 06:09:44;;;;;;;8.23;6.60;;;-2.60;99.90;-3.30;97969.00;;;;5095647;28;20473;-80
2022/01/25 06:12:32;;;;;;;9.40;7.00;;;-2.60;99.90;-3.30;97973.00;;;;5095097;28;20441;-80
2022/01/25 06:15:22;;;;;;;7.77;6.97;;;-2.60;99.90;-3.30;97968.00;;;;5095122;28;20453;-81
2022/01/25 06:18:11;;;;;;;10.07;7.90;;;-2.60;99.90;-3.20;97961.00;;;;5095387;28;20429;-80
2022/01/25 06:21:01;;;;;;;9.17;6.30;;;-2.60;99.90;-3.30;97963.00;;;;5088220;28;20959;-81
2022/01/25 06:23:50;;;;;;;12.23;7.23;;;-2.60;99.90;-3.30;97959.00;;;;5089993;28;20442;-81
2022/01/25 06:26:39;;;;;;;11.73;7.87;;;-2.60;99.90;-3.30;97955.00;;;;5096471;28;20430;-81
2022/01/25 06:29:28;;;;;;;9.03;6.47;;;-2.60;99.90;-3.30;97969.00;;;;5094019;28;20463;-81
2022/01/25 06:32:19;;;;;;;11.23;6.57;;;-2.60;99.90;-3.30;97967.00;;;;5092924;28;20444;-81
2022/01/25 06:35:09;;;;;;;9.20;7.03;;;-2.70;99.90;-3.30;97974.00;;;;5092978;28;20457;-81
2022/01/25 06:38:00;;;;;;;8.50;6.43;;;-2.70;99.90;-3.30;97966.00;;;;5094204;28;20910;-81
2022/01/25 06:40:48;;;;;;;12.00;7.40;;;-2.70;99.90;-3.30;97976.00;;;;5093706;28;20795;-80
2022/01/25 06:43:38;;;;;;;10.00;6.50;;;-2.70;99.90;-3.30;97972.00;;;;5094569;28;20464;-81
2022/01/25 06:46:27;;;;;;;9.20;6.53;;;-2.70;99.90;-3.30;97981.00;;;;5087842;28;20425;-81
2022/01/25 06:49:17;;;;;;;19.37;8.57;;;-2.70;99.90;-3.40;97971.00;;;;5092629;28;21010;-81
2022/01/25 06:52:06;;;;;;;21.47;10.67;;;-2.70;99.90;-3.40;97971.00;;;;5094651;28;20414;-81
2022/01/25 06:54:56;;;;;;;13.67;8.40;;;-2.70;99.90;-3.30;97972.00;;;;5091840;28;20805;-81
2022/01/25 06:57:46;;;;;;;12.27;7.17;;;-2.70;99.90;-3.10;97982.00;;;;5093367;28;20504;-81
2022/01/25 07:00:35;;;;;;;9.97;6.53;;;-2.60;99.90;-3.10;97977.00;;;;5093043;28;20435;-81
2022/01/25 07:03:24;;;;;;;10.30;7.70;;;-2.60;99.90;-3.10;97975.00;;;;5090803;28;20980;-81
2022/01/25 07:06:13;;;;;;;8.37;6.90;;;-2.50;99.90;-3.20;97981.00;;;;5079423;28;20456;-81
2022/01/25 07:09:03;;;;;;;9.03;5.63;;;-2.50;99.90;-3.20;97984.00;;;;5094830;28;20466;-81
2022/01/25 07:11:53;;;;;;;9.13;6.07;;;-2.50;99.90;-3.10;97982.00;;;;5094124;28;20970;-81
2022/01/25 07:14:42;;;;;;;8.47;6.60;;;-2.40;99.90;-3.20;97972.00;;;;5094537;28;20452;-80
2022/01/25 07:17:31;;;;;;;7.17;5.67;;;-2.40;99.90;-3.20;97968.00;;;;5093834;28;20425;-81
2022/01/25 07:20:20;;;;;;;8.40;5.93;;;-2.40;99.90;-3.10;97964.00;;;;5089472;28;20430;-81
2022/01/25 07:23:08;;;;;;;8.03;5.00;;;-2.30;99.90;-3.10;97982.00;;;;5092460;28;20422;-81
2022/01/25 07:25:57;;;;;;;7.13;5.90;;;-2.30;99.90;-3.30;97960.00;;;;5083868;28;21128;-80
2022/01/25 07:28:48;;;;;;;7.33;5.87;;;-2.30;99.90;-3.30;97958.00;;;;5098387;28;20425;-81
2022/01/25 07:31:37;;;;;;;10.27;6.40;;;-2.40;99.90;-3.20;97969.00;;;;5097807;28;20433;-80
2022/01/25 07:34:34;;;;;;;7.73;6.40;;;-2.30;99.90;-3.30;97955.00;;;;5088984;28;20448;-81
2022/01/25 07:37:25;;;;;;;19.20;12.77;;;-2.30;99.90;-3.40;97954.00;;;;5096008;28;20430;-80
2022/01/25 07:40:16;;;;;;;26.73;17.10;;;-2.40;99.90;-3.20;97949.00;;;;5096380;28;20438;-80
2022/01/25 07:43:07;;;;;;;8.57;7.70;;;-2.40;99.90;-3.40;97962.00;;;;5093185;28;20426;-80
2022/01/25 07:46:10;;;;;;;6.10;5.27;;;-2.40;99.90;-3.50;97953.00;;;;5097733;28;20892;-80
2022/01/25 07:49:01;;;;;;;9.23;7.07;;;-2.40;99.90;-3.20;97951.00;;;;5097619;28;20977;-80
2022/01/25 07:51:51;;;;;;;7.87;6.30;;;-2.40;99.90;-3.00;97952.00;;;;5088856;28;20473;-80
2022/01/25 07:54:41;;;;;;;8.40;5.70;;;-2.30;99.90;-3.20;97960.00;;;;5092433;28;20451;-80
2022/01/25 07:57:30;;;;;;;8.03;4.97;;;-2.30;99.90;-3.30;97956.00;;;;5097039;28;20958;-80
2022/01/25 08:00:20;;;;;;;6.10;4.33;;;-2.30;99.90;-3.40;97950.00;;;;5087826;28;20814;-80
2022/01/25 08:03:11;;;;;;;6.47;5.57;;;-2.30;99.90;-3.30;97956.00;;;;5092982;28;20452;-80
2022/01/25 08:06:15;;;;;;;5.47;4.23;;;-2.30;99.90;-3.40;97959.00;;;;5099200;28;20995;-81
2022/01/25 08:09:17;;;;;;;5.83;4.90;;;-2.30;99.90;-3.20;97953.00;;;;5065645;28;21002;-80
2022/01/25 08:12:17;;;;;;;4.83;4.07;;;-1.30;99.90;-2.90;97956.00;;;;5097701;28;20953;-80
2022/01/25 08:15:24;;;;;;;6.63;5.03;;;-2.30;99.90;-3.30;97950.00;;;;5096790;28;20573;-80
2022/01/25 08:18:21;;;;;;;8.73;5.50;;;-2.20;99.90;-3.00;97958.00;;;;5095120;28;20893;-80
2022/01/25 08:21:26;;;;;;;5.03;3.83;;;-2.20;99.90;-2.90;97953.00;;;;5088990;28;20980;-80
2022/01/25 08:24:32;;;;;;;8.67;6.20;;;-2.10;99.90;-2.50;97959.00;;;;5086258;28;20456;-80
2022/01/25 08:27:32;;;;;;;9.73;6.67;;;-2.00;99.90;-2.30;97959.00;;;;5084465;28;20430;-80
2022/01/25 08:30:31;;;;;;;7.83;5.93;;;-1.60;99.90;-2.30;97959.00;;;;5096442;28;20498;-80
2022/01/25 08:33:30;;;;;;;9.37;6.07;;;-1.60;99.90;-2.30;97953.00;;;;5097212;28;21029;-80
2022/01/25 08:36:36;;;;;;;6.60;4.63;;;-1.50;99.90;-2.30;97960.00;;;;5097507;28;20445;-80
2022/01/25 08:39:48;;;;;;;12.80;7.40;;;-1.40;99.90;-2.10;97963.00;;;;5016285;28;20988;-80
2022/01/25 08:42:54;;;;;;;2.10;2.00;;;-1.20;99.90;-2.40;97949.00;;;;5076492;28;20441;-80
2022/01/25 08:45:52;;;;;;;10.63;8.00;;;-1.40;99.90;-2.00;97948.00;;;;5082491;28;20429;-80
2022/01/25 08:48:45;;;;;;;10.07;8.17;;;-1.30;99.90;-1.90;97950.00;;;;5085451;28;20434;-80
2022/01/25 08:51:48;;;;;;;8.73;6.60;;;-1.20;99.90;-1.90;97955.00;;;;5097460;28;20971;-81
2022/01/25 08:55:10;;;;;;;6.03;5.00;;;-1.10;99.90;-1.70;97959.00;;;;5014598;28;20920;-80
2022/01/25 08:58:12;;;;;;;7.43;5.90;;;-1.10;99.90;-1.70;97969.00;;;;5017654;28;20431;-80
2022/01/25 09:01:01;;;;;;;10.43;5.67;;;-1.00;99.90;-1.60;97961.00;;;;5093813;28;20449;-80
2022/01/25 09:03:51;;;;;;;7.50;5.80;;;-0.80;99.90;-1.40;97960.00;;;;5099001;28;20447;-80
2022/01/25 09:06:40;;;;;;;12.70;7.93;;;-0.80;99.90;-1.00;97951.00;;;;5098238;28;20422;-80
2022/01/25 09:09:29;;;;;;;10.47;7.27;;;-0.20;99.90;-0.90;97958.00;;;;5096708;28;20436;-80
2022/01/25 09:12:18;;;;;;;10.40;5.97;;;-0.40;99.90;-0.80;97962.00;;;;5099065;28;20912;-80
2022/01/25 09:15:07;;;;;;;9.60;6.97;;;-0.30;99.90;-0.80;97954.00;;;;5099097;28;20446;-81
2022/01/25 09:17:56;;;;;;;9.30;7.70;;;-0.20;99.90;-0.60;97957.00;;;;5098679;28;20449;-81
2022/01/25 09:20:46;;;;;;;13.37;7.03;;;-0.10;99.90;-0.70;97956.00;;;;5098395;28;20803;-80
2022/01/25 09:23:35;;;;;;;12.70;8.20;;;0.00;99.90;-0.30;97960.00;;;;5100390;28;20461;-81
2022/01/25 09:26:25;;;;;;;8.63;6.00;;;0.20;99.90;0.00;97962.00;;;;5099052;28;20957;-80
2022/01/25 09:29:13;;;;;;;11.50;8.57;;;0.30;99.90;0.40;97966.00;;;;5099462;28;20416;-81
2022/01/25 09:32:03;;;;;;;10.40;7.03;;;0.60;99.90;0.60;97964.00;;;;5091352;28;21004;-80
2022/01/25 09:34:51;;;;;;;11.83;7.77;;;0.70;99.90;0.60;97970.00;;;;5099089;28;20442;-81
2022/01/25 09:37:42;;;;;;;14.47;7.23;;;1.00;99.90;0.70;97970.00;;;;5098222;28;20429;-81
2022/01/25 09:40:31;;;;;;;11.27;7.33;;;1.10;99.90;1.10;97965.00;;;;5098657;28;21032;-81
2022/01/25 09:43:23;;;;;;;14.70;8.97;;;1.20;99.90;1.40;97966.00;;;;5093181;28;20453;-81
2022/01/25 09:46:12;;;;;;;12.07;7.53;;;1.50;99.90;1.30;97964.00;;;;5088816;28;20421;-81
2022/01/25 09:49:01;;;;;;;12.20;7.37;;;1.70;99.90;0.90;97946.00;;;;5085583;28;20445;-80
2022/01/25 09:51:51;;;;;;;9.07;8.03;;;1.70;99.90;1.20;97956.00;;;;5096825;28;20473;-81
2022/01/25 09:54:42;;;;;;;10.40;7.60;;;1.70;99.90;1.80;97970.00;;;;5101271;27;20446;-81
2022/01/25 09:57:31;;;;;;;11.83;7.73;;;1.80;99.90;2.00;97965.00;;;;5096849;28;20468;-81
2022/01/25 10:00:23;;;;;;;11.23;7.53;;;2.10;99.90;2.00;97964.00;;;;5095068;28;20425;-82
2022/01/25 10:03:19;;;;;;;10.87;8.03;;;2.30;99.90;2.70;97979.00;;;;5097807;28;20418;-81
2022/01/25 10:06:15;;;;;;;10.57;7.47;;;2.40;99.90;3.10;97980.00;;;;5099999;28;20437;-81
2022/01/25 10:09:04;;;;;;;11.37;7.53;;;2.80;99.90;3.30;97968.00;;;;5101439;28;20426;-81
2022/01/25 10:11:54;;;;;;;9.53;7.17;;;3.00;99.90;3.10;97960.00;;;;5099977;28;20474;-81
2022/01/25 10:14:56;;;;;;;11.77;7.77;;;3.20;99.90;3.20;97960.00;;;;5097310;28;20438;-81
2022/01/25 10:17:46;;;;;;;11.17;6.97;;;3.30;99.90;3.20;97951.00;;;;5100035;28;20444;-81
2022/01/25 10:20:38;;;;;;;8.70;6.93;;;3.40;99.90;3.70;97965.00;;;;5100969;28;20724;-81
2022/01/25 10:23:31;;;;;;;9.70;6.67;;;3.60;99.90;3.60;97950.00;;;;5101469;28;20450;-81
2022/01/25 10:26:24;;;;;;;9.87;7.67;;;3.80;99.90;3.80;97952.00;;;;5089736;28;20436;-81
2022/01/25 10:29:31;;;;;;;13.83;7.83;;;3.90;99.90;3.80;97951.00;;;;5102457;28;20494;-80
2022/01/25 10:32:23;;;;;;;7.70;5.97;;;4.00;99.90;3.90;97953.00;;;;5101313;28;20480;-81
2022/01/25 10:35:17;;;;;;;8.67;6.90;;;4.10;99.90;4.30;97946.00;;;;5101002;28;20453;-82
2022/01/25 10:38:20;;;;;;;10.00;6.90;;;4.30;99.90;4.70;97939.00;;;;5101910;28;20206;-81
2022/01/25 10:41:16;;;;;;;10.17;6.97;;;4.70;99.90;5.00;97941.00;;;;5101398;28;20664;-82
2022/01/25 10:44:08;;;;;;;8.63;6.57;;;5.50;99.90;6.50;97958.00;;;;5092526;28;20227;-82
2022/01/25 10:46:58;;;;;;;9.70;6.40;;;6.40;99.90;6.20;97943.00;;;;5098112;28;20214;-82
2022/01/25 10:49:50;;;;;;;8.40;5.70;;;7.00;99.90;7.30;97945.00;;;;5092716;28;20230;-82
2022/01/25 10:52:39;;;;;;;8.57;6.37;;;7.50;99.90;8.30;97953.00;;;;5101383;28;20230;-82
2022/01/25 10:55:38;;;;;;;9.13;6.30;;;8.10;99.90;8.10;97945.00;;;;5097651;28;20209;-82
2022/01/25 10:58:28;;;;;;;7.90;6.03;;;8.70;99.90;7.40;97938.00;;;;5099160;28;20461;-81
2022/01/25 11:01:31;;;;;;;7.33;5.70;;;9.00;95.00;8.50;97941.00;;;;5101548;28;20221;-82
2022/01/25 11:04:25;;;;;;;8.60;5.77;;;9.00;94.50;8.50;97928.00;;;;5100387;28;20219;-82
2022/01/25 11:07:14;;;;;;;10.53;6.50;;;9.20;93.20;8.80;97929.00;;;;5098203;28;20257;-82
2022/01/25 11:10:05;;;;;;;7.77;6.07;;;9.40;91.80;9.20;97934.00;;;;5100203;28;20738;-81
2022/01/25 11:13:04;;;;;;;7.07;5.93;;;9.50;91.60;9.40;97930.00;;;;5100556;28;20207;-82
2022/01/25 11:15:55;;;;;;;10.67;6.43;;;9.60;90.40;9.90;97926.00;;;;5100983;28;20207;-81
2022/01/25 11:18:44;;;;;;;14.07;6.57;;;9.90;90.30;9.60;97926.00;;;;5090405;28;20218;-81
2022/01/25 11:21:34;;;;;;;10.67;6.63;;;10.00;86.70;9.20;97917.00;;;;5089956;28;20233;-82
2022/01/25 11:24:24;;;;;;;6.57;5.87;;;10.20;83.90;9.90;97917.00;;;;5079318;28;20222;-82
2022/01/25 11:27:13;;;;;;;11.57;7.37;;;10.30;83.30;10.30;97931.00;;;;5090812;28;20203;-82
2022/01/25 11:30:10;;;;;;;11.27;7.73;;;10.40;83.20;10.90;97926.00;;;;5089898;28;20210;-86
2022/01/25 11:32:59;;;;;;;12.33;7.63;;;10.50;85.70;10.90;97913.00;;;;5089745;28;20588;-86
2022/01/25 11:35:49;;;;;;;18.37;8.40;;;10.80;85.30;10.30;97904.00;;;;5088779;28;20210;-86
2022/01/25 11:38:45;;;;;;;11.57;7.70;;;10.80;82.10;10.90;97903.00;;;;5088123;28;20661;-85
2022/01/25 11:41:35;;;;;;;18.73;8.80;;;10.90;81.30;10.40;97890.00;;;;5086216;28;20226;-85
2022/01/25 11:44:26;;;;;;;11.97;8.33;;;11.10;78.70;10.80;97897.00;;;;5085884;28;20219;-85
2022/01/25 11:47:17;;;;;;;12.83;9.03;;;11.10;78.80;10.90;97905.00;;;;5079605;28;20206;-85
2022/01/25 11:50:10;;;;;;;11.17;7.83;;;11.00;78.00;10.70;97886.00;;;;5078876;28;20207;-85
2022/01/25 11:53:06;;;;;;;17.13;8.43;;;11.10;76.90;11.00;97883.00;;;;5070994;28;20689;-86
2022/01/25 11:55:56;;;;;;;13.67;8.03;;;11.20;76.30;11.00;97891.00;;;;5088171;28;20195;-85
2022/01/25 11:58:55;;;;;;;12.97;7.80;;;11.30;76.00;10.30;97878.00;;;;5090406;28;20196;-86
2022/01/25 12:01:52;;;;;;;15.73;9.63;;;11.20;74.20;10.60;97882.00;;;;5089128;28;20397;-86
2022/01/25 12:04:45;;;;;;;16.03;9.27;;;11.30;73.80;10.80;97867.00;;;;5092237;28;20234;-85
2022/01/25 12:07:40;;;;;;;10.40;8.23;;;11.40;72.70;11.70;97887.00;;;;5088228;28;20712;-85
2022/01/25 12:10:35;;;;;;;14.20;7.57;;;11.50;74.20;11.50;97865.00;;;;5088015;28;20214;-86
2022/01/25 12:13:31;;;;;;;12.90;6.67;;;11.80;72.60;11.20;97863.00;;;;5088246;28;20216;-85
2022/01/25 12:16:26;;;;;;;13.13;11.73;;;11.90;70.50;12.00;97862.00;;;;5090952;28;20663;-85
2022/01/25 12:19:17;;;;;;;16.67;14.83;;;12.00;70.30;12.00;97857.00;;;;5091400;28;20199;-85
2022/01/25 12:22:14;;;;;;;14.30;8.07;;;12.40;69.80;12.50;97864.00;;;;5093331;28;20222;-85
2022/01/25 12:25:13;;;;;;;24.23;10.13;;;12.90;68.10;12.60;97852.00;;;;5100450;28;20301;-86
2022/01/25 12:28:07;;;;;;;9.80;7.57;;;13.10;67.00;13.40;97855.00;;;;5096803;28;20668;-86
2022/01/25 12:31:01;;;;;;;12.93;9.57;;;13.30;66.70;13.20;97844.00;;;;5086432;28;20253;-85
2022/01/25 12:33:50;;;;;;;14.07;9.23;;;13.50;65.10;13.20;97854.00;;;;5093451;28;20230;-85
2022/01/25 12:36:43;;;;;;;13.17;9.63;;;13.70;63.20;12.20;97847.00;;;;5085700;28;20587;-85
2022/01/25 12:39:35;;;;;;;16.87;10.20;;;13.70;63.40;12.40;97835.00;;;;5084890;28;20208;-86
2022/01/25 12:42:32;;;;;;;14.83;9.60;;;13.30;62.70;12.50;97841.00;;;;5092653;28;20249;-85
2022/01/25 12:45:26;;;;;;;14.43;9.10;;;13.30;62.60;12.70;97842.00;;;;5089460;28;20616;-88
2022/01/25 12:48:19;;;;;;;17.43;9.90;;;13.30;63.10;13.60;97849.00;;;;5092776;28;20195;-86
2022/01/25 12:51:11;;;;;;;13.70;10.80;;;13.70;62.10;13.10;97839.00;;;;5092366;28;20199;-87
2022/01/25 12:54:04;;;;;;;12.53;9.33;;;14.00;60.90;13.40;97819.00;;;;5093708;28;20230;-86
2022/01/25 12:56:58;;;;;;;25.87;15.33;;;14.20;60.10;13.70;97833.00;;;;5079192;28;20206;-85
2022/01/25 12:59:50;;;;;;;11.53;9.50;;;14.50;59.80;13.50;97832.00;;;;5082464;28;20702;-87
2022/01/25 13:05:54;;;;;;;15.10;10.40;;;14.50;58.40;11.50;97805.00;;;;5084819;28;20199;-85
2022/01/25 13:08:49;;;;;;;11.50;8.07;;;14.70;57.00;13.40;97815.00;;;;5091333;28;20207;-86
2022/01/25 13:11:49;;;;;;;15.57;9.93;;;14.40;58.10;14.20;97814.00;;;;5078206;28;20218;-87
2022/01/25 13:14:51;;;;;;;16.10;9.97;;;14.50;58.30;11.10;97794.00;;;;5091361;28;20633;-85
2022/01/25 13:17:40;;;;;;;11.30;7.97;;;14.50;56.70;11.10;97797.00;;;;5092045;28;20206;-87
2022/01/25 13:20:29;;;;;;;13.40;10.87;;;14.30;56.60;12.80;97804.00;;;;5093054;28;20780;-85
2022/01/25 13:23:19;;;;;;;13.13;8.27;;;14.10;58.00;13.40;97808.00;;;;5092386;28;20203;-85
2022/01/25 13:26:16;;;;;;;12.70;9.47;;;14.10;58.20;9.50;97784.00;;;;5088929;28;20214;-83
2022/01/25 13:32:20;;;;;;;14.47;9.70;;;13.30;58.20;10.80;97788.00;;;;5089500;28;20618;-83
2022/01/25 13:35:21;;;;;;;12.03;8.90;;;13.10;58.60;10.60;97792.00;;;;5085669;28;20223;-83
2022/01/25 13:38:12;;;;;;;10.53;8.90;;;13.10;58.70;10.60;97794.00;;;;5083574;28;20350;-80
2022/01/25 13:41:18;;;;;;;13.93;8.93;;;13.00;58.60;10.60;97790.00;;;;5081108;28;20203;-80
2022/01/25 13:47:12;;;;;;;10.30;8.53;;;13.00;58.80;11.30;97792.00;;;;5060582;28;20352;-80
2022/01/25 13:50:01;;;;;;;11.63;9.57;;;13.30;58.70;10.20;97784.00;;;;5081836;28;20222;-80
2022/01/25 13:52:52;;;;;;;12.37;9.13;;;13.30;57.80;12.40;97804.00;;;;5082953;28;20220;-80
2022/01/25 13:55:48;;;;;;;12.97;9.57;;;13.30;58.50;12.80;97806.00;;;;5082821;28;20210;-80
2022/01/25 13:58:41;;;;;;;13.20;9.43;;;13.20;58.70;12.00;97808.00;;;;5083946;28;20199;-80